Time;durP1;ratioP1;P1;durP2;ratioP2;P2;SDS_P1;SDS_P2;PMS_P1;PMS_P2;Temp;Humidity;BMP_temperature;BMP_pressure;BME280_temperature;BME280_humidity;BME280_pressure;Samples;Min_cycle;Max_cycle;Signal;HPM_P1;HPM_P2
2023/07/19 00:01:38;;;;;;;3.90;2.85;;;19.00;99.90;;;;;;5084074;28;20231;-49
2023/07/19 00:04:04;;;;;;;5.50;2.83;;;19.00;99.90;;;;;;5070847;28;20253;-49
2023/07/19 00:06:30;;;;;;;7.20;3.38;;;18.90;99.90;;;;;;5071280;28;20584;-49
2023/07/19 00:08:55;;;;;;;3.88;2.78;;;18.90;99.90;;;;;;5070818;28;20634;-49
2023/07/19 00:11:21;;;;;;;3.05;2.75;;;18.80;99.90;;;;;;5076568;28;20228;-49
2023/07/19 00:13:47;;;;;;;5.47;3.10;;;18.70;99.90;;;;;;5072264;28;20178;-50
2023/07/19 00:16:12;;;;;;;4.22;2.85;;;18.50;99.90;;;;;;5090920;28;20180;-49
2023/07/19 00:18:38;;;;;;;4.32;2.50;;;18.40;99.90;;;;;;5091250;28;20166;-50
2023/07/19 00:21:04;;;;;;;6.80;3.20;;;18.30;99.90;;;;;;5084297;28;20162;-50
2023/07/19 00:23:29;;;;;;;4.45;2.95;;;18.50;99.90;;;;;;5092200;28;20184;-50
2023/07/19 00:25:55;;;;;;;5.25;2.70;;;18.50;99.90;;;;;;5094632;28;20189;-50
2023/07/19 00:28:21;;;;;;;6.28;3.03;;;18.60;99.90;;;;;;5094586;28;20201;-50
2023/07/19 00:30:46;;;;;;;4.97;2.92;;;18.60;99.90;;;;;;5094097;28;20204;-49
2023/07/19 00:33:12;;;;;;;4.68;2.70;;;18.50;99.90;;;;;;5076564;28;20224;-49
2023/07/19 00:35:41;;;;;;;4.60;3.10;;;18.50;99.90;;;;;;5074140;28;20170;-49
2023/07/19 00:38:07;;;;;;;5.50;3.10;;;18.60;99.90;;;;;;5074198;28;20181;-49
2023/07/19 00:40:33;;;;;;;8.57;3.47;;;18.50;99.90;;;;;;5075861;28;20174;-49
2023/07/19 00:42:58;;;;;;;11.65;3.75;;;18.40;99.90;;;;;;5094892;28;20259;-49
2023/07/19 00:45:27;;;;;;;8.82;3.70;;;18.30;99.90;;;;;;5093824;28;20245;-49
2023/07/19 00:47:54;;;;;;;11.98;3.25;;;18.20;99.90;;;;;;5094039;28;20184;-49
2023/07/19 00:50:21;;;;;;;10.18;3.78;;;18.20;99.90;;;;;;5093457;28;20176;-49
2023/07/19 00:52:47;;;;;;;7.22;3.35;;;18.00;99.90;;;;;;5073842;28;20582;-49
2023/07/19 00:55:13;;;;;;;7.70;3.08;;;17.80;99.90;;;;;;5073775;28;20220;-49
2023/07/19 00:57:38;;;;;;;9.63;3.88;;;17.80;99.90;;;;;;5073723;28;20580;-49
2023/07/19 01:00:06;;;;;;;12.02;3.50;;;18.00;99.90;;;;;;5073814;28;20166;-49
2023/07/19 01:02:32;;;;;;;7.93;3.47;;;18.10;99.90;;;;;;5091830;28;20166;-49
2023/07/19 01:04:57;;;;;;;9.35;2.90;;;18.20;99.90;;;;;;5094185;28;20581;-49
2023/07/19 01:07:23;;;;;;;3.80;2.70;;;18.30;99.90;;;;;;5075973;28;20174;-50
2023/07/19 01:09:50;;;;;;;5.82;3.00;;;18.30;99.90;;;;;;5073481;28;20653;-51
2023/07/19 01:12:16;;;;;;;7.55;3.28;;;18.30;99.90;;;;;;5071518;28;20687;-50
2023/07/19 01:14:41;;;;;;;6.68;3.55;;;18.30;99.90;;;;;;5091865;28;20165;-50
2023/07/19 01:17:07;;;;;;;9.23;3.22;;;18.30;99.90;;;;;;5093322;28;20181;-50
2023/07/19 01:19:32;;;;;;;4.57;3.08;;;18.20;99.90;;;;;;5073110;28;20251;-50
2023/07/19 01:21:58;;;;;;;6.35;3.50;;;18.20;99.90;;;;;;5080057;28;20170;-50
2023/07/19 01:24:24;;;;;;;7.47;3.08;;;18.10;99.90;;;;;;5073212;28;20194;-50
2023/07/19 01:26:49;;;;;;;7.57;3.13;;;18.00;99.90;;;;;;5073134;28;20247;-50
2023/07/19 01:29:15;;;;;;;10.68;3.92;;;18.00;99.90;;;;;;5073130;28;20640;-50
2023/07/19 01:31:40;;;;;;;6.50;3.50;;;17.90;99.90;;;;;;5084338;28;20291;-50
2023/07/19 01:34:06;;;;;;;5.65;2.90;;;18.00;99.90;;;;;;5092813;28;20509;-50
2023/07/19 01:36:31;;;;;;;12.23;4.25;;;18.00;99.90;;;;;;5082571;28;20181;-49
2023/07/19 01:38:57;;;;;;;10.15;3.50;;;18.00;99.90;;;;;;5073262;28;20162;-50
2023/07/19 01:41:23;;;;;;;7.88;3.97;;;18.10;99.90;;;;;;5080940;28;20177;-50
2023/07/19 01:43:48;;;;;;;13.07;4.03;;;18.10;99.90;;;;;;5093104;28;20165;-49
2023/07/19 01:46:14;;;;;;;8.77;3.83;;;18.10;99.90;;;;;;5092742;28;20258;-50
2023/07/19 01:48:39;;;;;;;8.27;3.55;;;18.10;99.90;;;;;;5093000;28;20621;-50
2023/07/19 01:51:05;;;;;;;10.02;3.42;;;18.10;99.90;;;;;;5086825;28;20684;-50
2023/07/19 01:53:31;;;;;;;8.57;3.55;;;18.10;99.90;;;;;;5072802;28;20287;-49
2023/07/19 01:55:56;;;;;;;9.77;3.22;;;18.00;99.90;;;;;;5072973;28;20173;-50
2023/07/19 01:58:22;;;;;;;11.60;3.42;;;18.10;99.90;;;;;;5055050;28;20178;-50
2023/07/19 02:00:48;;;;;;;10.25;3.72;;;17.80;99.90;;;;;;5075197;28;20252;-49
2023/07/19 02:03:13;;;;;;;6.90;3.83;;;17.40;99.90;;;;;;5074531;28;20170;-49
2023/07/19 02:05:39;;;;;;;11.40;3.38;;;17.40;99.90;;;;;;5092326;28;20219;-50
2023/07/19 02:08:04;;;;;;;9.32;3.58;;;17.40;99.90;;;;;;5092334;28;20169;-49
2023/07/19 02:10:30;;;;;;;8.20;3.60;;;17.60;99.90;;;;;;5091656;28;20188;-50
2023/07/19 02:12:55;;;;;;;8.05;3.53;;;17.70;99.90;;;;;;5072605;28;20178;-50
2023/07/19 02:15:21;;;;;;;10.13;3.67;;;17.60;99.90;;;;;;5073557;28;20614;-50
2023/07/19 02:17:47;;;;;;;9.27;4.10;;;17.70;99.90;;;;;;5072496;28;20197;-49
2023/07/19 02:20:13;;;;;;;8.00;3.80;;;17.70;99.90;;;;;;5072114;28;20162;-49
2023/07/19 02:22:39;;;;;;;18.13;4.13;;;17.70;99.90;;;;;;5089745;28;20161;-48
2023/07/19 02:25:05;;;;;;;8.88;3.65;;;17.80;99.90;;;;;;5092372;28;20641;-49
2023/07/19 02:27:31;;;;;;;6.65;3.60;;;17.80;99.90;;;;;;5091685;28;20173;-49
2023/07/19 02:29:56;;;;;;;10.25;4.00;;;17.70;99.90;;;;;;5092830;28;20222;-49
2023/07/19 02:32:22;;;;;;;13.35;5.00;;;17.70;99.90;;;;;;5076486;28;20682;-51
2023/07/19 02:34:48;;;;;;;12.43;3.95;;;17.80;99.90;;;;;;5071887;28;20249;-49
2023/07/19 02:37:13;;;;;;;9.98;4.05;;;17.60;99.90;;;;;;5071845;28;20683;-51
2023/07/19 02:39:39;;;;;;;9.27;4.72;;;17.60;99.90;;;;;;5077749;28;20162;-49
2023/07/19 02:42:04;;;;;;;10.02;4.55;;;17.60;99.90;;;;;;5078991;28;20174;-49
2023/07/19 02:44:30;;;;;;;7.50;4.22;;;17.70;99.90;;;;;;5071730;28;20197;-49
2023/07/19 02:46:55;;;;;;;9.05;4.45;;;17.70;99.90;;;;;;5084781;28;20180;-49
2023/07/19 02:49:23;;;;;;;7.38;4.25;;;17.60;99.90;;;;;;5091820;28;20174;-49
2023/07/19 02:51:48;;;;;;;5.82;4.13;;;17.60;99.90;;;;;;5081655;28;20204;-49
2023/07/19 02:54:15;;;;;;;12.18;3.95;;;17.60;99.90;;;;;;5060708;28;20173;-50
2023/07/19 02:56:40;;;;;;;74.45;39.45;;;17.60;99.90;;;;;;5091473;28;20176;-50
2023/07/19 02:59:06;;;;;;;30.70;16.58;;;17.50;99.90;;;;;;5091796;28;20166;-49
2023/07/19 03:01:31;;;;;;;22.40;10.27;;;17.70;99.90;;;;;;5083806;28;20715;-50
2023/07/19 03:04:02;;;;;;;16.67;7.90;;;17.70;99.90;;;;;;5071261;28;20162;-49
2023/07/19 03:06:28;;;;;;;17.77;5.30;;;17.70;99.90;;;;;;5053411;28;20258;-50
2023/07/19 03:08:54;;;;;;;13.30;4.63;;;17.70;99.90;;;;;;5071602;28;20203;-49
2023/07/19 03:11:19;;;;;;;13.60;5.03;;;17.80;99.90;;;;;;5076622;28;20262;-50
2023/07/19 03:13:45;;;;;;;10.05;3.70;;;17.70;99.90;;;;;;5076347;28;20180;-49
2023/07/19 03:16:10;;;;;;;9.93;4.30;;;17.80;99.90;;;;;;5071439;28;20182;-49
2023/07/19 03:18:36;;;;;;;6.32;3.47;;;17.90;99.90;;;;;;5071313;28;20165;-50
2023/07/19 03:21:02;;;;;;;8.75;3.83;;;18.00;99.90;;;;;;5073940;28;20548;-49
2023/07/19 03:23:30;;;;;;;8.30;3.97;;;18.00;99.90;;;;;;5073711;28;20176;-51
2023/07/19 03:25:57;;;;;;;5.65;3.90;;;17.90;99.90;;;;;;5091506;28;20166;-51
2023/07/19 03:28:25;;;;;;;8.20;3.65;;;18.00;99.90;;;;;;5091341;28;20200;-51
2023/07/19 03:30:54;;;;;;;10.13;3.78;;;18.00;99.90;;;;;;5091312;28;20201;-51
2023/07/19 03:33:24;;;;;;;10.77;4.20;;;17.90;99.90;;;;;;5091589;28;20177;-51
2023/07/19 03:35:49;;;;;;;6.63;3.95;;;17.90;99.90;;;;;;5091041;28;20196;-51
2023/07/19 03:38:19;;;;;;;5.85;4.10;;;17.80;99.90;;;;;;5091506;28;20589;-51
2023/07/19 03:40:44;;;;;;;7.20;4.57;;;17.70;99.90;;;;;;5090734;28;20165;-50
2023/07/19 03:43:10;;;;;;;6.78;4.15;;;17.60;99.90;;;;;;5071100;28;20223;-50
2023/07/19 03:45:36;;;;;;;7.45;3.50;;;17.60;99.90;;;;;;5071351;28;20174;-51
2023/07/19 03:48:02;;;;;;;6.28;3.83;;;17.60;99.90;;;;;;5071109;28;20173;-50
2023/07/19 03:50:28;;;;;;;5.55;4.00;;;17.60;99.90;;;;;;5071505;28;20178;-51
2023/07/19 03:52:53;;;;;;;10.88;4.20;;;17.60;99.90;;;;;;5088410;28;20177;-50
2023/07/19 03:55:19;;;;;;;5.97;3.80;;;17.60;99.90;;;;;;5090909;28;20200;-50
2023/07/19 03:57:44;;;;;;;7.10;3.92;;;17.50;99.90;;;;;;5091167;28;20218;-50
2023/07/19 04:00:11;;;;;;;10.25;3.85;;;17.50;99.90;;;;;;5095078;28;20161;-50
2023/07/19 04:02:37;;;;;;;5.07;3.42;;;17.60;99.90;;;;;;5090002;28;20166;-51
2023/07/19 04:05:02;;;;;;;10.45;4.65;;;17.60;99.90;;;;;;5094988;28;20369;-51
2023/07/19 04:07:28;;;;;;;6.78;3.47;;;17.50;99.90;;;;;;5076902;28;20633;-51
2023/07/19 04:09:54;;;;;;;8.90;4.40;;;17.50;99.90;;;;;;5095517;28;20169;-50
2023/07/19 04:12:19;;;;;;;6.85;3.50;;;17.40;99.90;;;;;;5077220;28;20688;-50
2023/07/19 04:14:45;;;;;;;8.27;4.20;;;17.50;99.90;;;;;;5074453;28;20177;-51
2023/07/19 04:17:11;;;;;;;6.82;4.57;;;17.50;99.90;;;;;;5090315;28;20176;-50
2023/07/19 04:19:37;;;;;;;6.68;3.70;;;17.60;99.90;;;;;;5094186;28;20169;-51
2023/07/19 04:22:03;;;;;;;10.20;4.35;;;17.70;99.90;;;;;;5083789;28;20181;-50
2023/07/19 04:24:28;;;;;;;7.18;4.30;;;17.70;99.90;;;;;;5074537;28;20226;-49
2023/07/19 04:26:54;;;;;;;8.75;4.05;;;17.70;99.90;;;;;;5074439;28;20264;-49
2023/07/19 04:29:21;;;;;;;7.85;4.05;;;17.80;99.90;;;;;;5074237;28;20534;-50
2023/07/19 04:31:46;;;;;;;6.30;4.30;;;17.80;99.90;;;;;;5081462;28;20201;-51
2023/07/19 04:34:12;;;;;;;9.82;3.92;;;17.90;99.90;;;;;;5094471;28;20168;-50
2023/07/19 04:36:37;;;;;;;13.55;4.35;;;18.00;99.90;;;;;;5093915;28;20173;-49
2023/07/19 04:39:03;;;;;;;8.25;4.10;;;18.00;99.90;;;;;;5094282;28;20168;-50
2023/07/19 04:41:29;;;;;;;7.75;3.70;;;18.10;99.90;;;;;;5089080;28;20170;-50
2023/07/19 04:43:55;;;;;;;7.25;5.00;;;18.10;99.90;;;;;;5070290;28;20169;-50
2023/07/19 04:46:21;;;;;;;8.48;4.43;;;18.20;99.90;;;;;;5094229;28;20668;-51
2023/07/19 04:48:47;;;;;;;6.70;3.92;;;18.20;99.90;;;;;;5094322;28;20521;-50
2023/07/19 04:51:12;;;;;;;8.73;3.85;;;18.20;99.90;;;;;;5091389;28;20237;-50
2023/07/19 04:53:38;;;;;;;7.05;3.92;;;18.10;99.90;;;;;;5073811;28;20170;-50
2023/07/19 04:56:04;;;;;;;15.02;3.95;;;18.10;99.90;;;;;;5073760;28;20224;-50
2023/07/19 04:58:29;;;;;;;6.40;3.58;;;18.20;99.90;;;;;;5073645;28;20188;-49
2023/07/19 05:00:55;;;;;;;8.45;3.50;;;18.30;99.90;;;;;;5073887;28;20166;-49
2023/07/19 05:03:22;;;;;;;9.93;3.80;;;19.70;99.90;;;;;;5093264;28;20198;-50
2023/07/19 05:05:47;;;;;;;12.70;4.68;;;18.50;99.90;;;;;;5093595;28;20200;-49
2023/07/19 05:08:13;;;;;;;6.88;3.70;;;18.40;99.90;;;;;;5093663;28;20663;-49
2023/07/19 05:10:39;;;;;;;8.98;4.28;;;18.50;99.90;;;;;;5091326;28;20695;-49
2023/07/19 05:13:05;;;;;;;8.00;3.85;;;18.60;99.90;;;;;;5076119;28;20655;-49
2023/07/19 05:15:31;;;;;;;7.57;3.97;;;18.50;99.90;;;;;;5073353;28;20227;-49
2023/07/19 05:17:57;;;;;;;11.57;4.00;;;18.40;99.90;;;;;;5074063;28;20170;-49
2023/07/19 05:20:23;;;;;;;11.50;4.38;;;18.30;99.90;;;;;;5073594;28;20189;-49
2023/07/19 05:22:49;;;;;;;15.52;4.35;;;18.20;99.90;;;;;;5087853;28;20248;-50
2023/07/19 05:25:15;;;;;;;9.85;4.93;;;18.10;99.90;;;;;;5089386;28;20177;-49
2023/07/19 05:27:40;;;;;;;8.27;4.45;;;18.20;99.90;;;;;;5092502;28;20169;-49
2023/07/19 05:30:07;;;;;;;9.30;4.72;;;18.30;99.90;;;;;;5093628;28;20174;-49
2023/07/19 05:32:32;;;;;;;6.40;4.50;;;18.30;99.90;;;;;;5080098;28;20202;-50
2023/07/19 05:34:58;;;;;;;6.93;4.38;;;18.20;99.90;;;;;;5073635;28;20519;-49
2023/07/19 05:37:24;;;;;;;8.77;4.35;;;18.40;99.90;;;;;;5073292;28;20676;-49
2023/07/19 05:39:50;;;;;;;7.50;4.57;;;18.40;99.90;;;;;;5075847;28;20169;-49
2023/07/19 05:42:15;;;;;;;13.27;4.93;;;18.40;99.90;;;;;;5083060;28;20208;-49
2023/07/19 05:44:41;;;;;;;6.97;4.43;;;18.40;99.90;;;;;;5072866;28;20257;-49
2023/07/19 05:47:07;;;;;;;6.85;4.43;;;18.50;99.90;;;;;;5072753;28;20522;-49
2023/07/19 05:49:33;;;;;;;13.82;4.95;;;18.60;99.90;;;;;;5073066;28;20212;-49
2023/07/19 05:51:59;;;;;;;6.63;4.72;;;18.60;99.90;;;;;;5062219;28;20201;-49
2023/07/19 05:54:24;;;;;;;9.18;5.55;;;18.50;99.90;;;;;;5078325;28;20178;-49
2023/07/19 05:56:50;;;;;;;7.03;4.95;;;18.50;99.90;;;;;;5072639;28;20181;-49
2023/07/19 05:59:16;;;;;;;9.07;4.60;;;18.80;99.90;;;;;;5054811;28;20693;-49
2023/07/19 06:01:41;;;;;;;11.63;4.70;;;18.90;99.90;;;;;;5077177;28;20659;-49
2023/07/19 06:04:08;;;;;;;14.48;5.00;;;18.90;99.90;;;;;;5092723;28;20180;-49
2023/07/19 06:06:34;;;;;;;8.13;5.07;;;18.80;99.90;;;;;;5092395;28;20177;-49
2023/07/19 06:09:05;;;;;;;10.45;5.00;;;18.80;99.90;;;;;;5092900;28;20641;-49
2023/07/19 06:11:32;;;;;;;11.57;5.32;;;18.80;99.90;;;;;;5084558;28;20224;-49
2023/07/19 06:13:58;;;;;;;10.48;4.80;;;18.80;99.90;;;;;;5092822;28;20173;-49
2023/07/19 06:16:24;;;;;;;9.25;5.90;;;18.90;99.90;;;;;;5092805;28;20173;-49
2023/07/19 06:18:49;;;;;;;10.77;5.95;;;18.90;99.90;;;;;;5092754;28;20504;-49
2023/07/19 06:21:15;;;;;;;7.60;5.55;;;19.00;99.90;;;;;;5083313;28;20547;-49
2023/07/19 06:23:42;;;;;;;7.80;5.28;;;19.00;99.90;;;;;;5092115;28;20640;-49
2023/07/19 06:26:07;;;;;;;6.97;5.00;;;19.10;99.90;;;;;;5092610;28;20538;-49
2023/07/19 06:28:35;;;;;;;11.20;5.20;;;19.10;99.90;;;;;;5081225;28;20188;-49
2023/07/19 06:31:01;;;;;;;8.32;4.97;;;19.20;99.90;;;;;;5072592;28;20239;-49
2023/07/19 06:33:31;;;;;;;9.57;5.05;;;19.40;99.90;;;;;;5083576;28;20174;-49
2023/07/19 06:35:57;;;;;;;10.93;5.40;;;19.40;99.90;;;;;;5087309;28;20165;-49
2023/07/19 06:38:24;;;;;;;9.07;4.93;;;19.50;99.90;;;;;;5092321;28;20162;-49
2023/07/19 06:40:49;;;;;;;10.15;5.18;;;19.40;99.90;;;;;;5092055;28;20640;-49
2023/07/19 06:43:15;;;;;;;7.75;5.32;;;19.40;99.90;;;;;;5082987;28;20161;-49
2023/07/19 06:45:40;;;;;;;8.35;5.13;;;19.50;99.90;;;;;;5092033;28;20193;-49
2023/07/19 06:48:06;;;;;;;9.65;5.18;;;19.70;99.90;;;;;;5091986;28;20177;-49
2023/07/19 06:50:32;;;;;;;8.25;5.43;;;19.60;99.90;;;;;;5078683;28;20328;-49
2023/07/19 06:52:59;;;;;;;7.85;5.00;;;19.70;99.90;;;;;;5092039;28;20169;-49
2023/07/19 06:55:25;;;;;;;6.85;5.05;;;19.60;99.90;;;;;;5084245;28;20179;-49
2023/07/19 06:57:51;;;;;;;9.88;4.65;;;19.80;99.90;;;;;;5071523;28;20170;-49
2023/07/19 07:00:17;;;;;;;13.07;5.53;;;19.90;99.90;;;;;;5071398;28;20190;-49
2023/07/19 07:02:43;;;;;;;10.52;5.35;;;20.10;99.90;;;;;;5071904;28;20229;-49
2023/07/19 07:05:10;;;;;;;8.38;5.25;;;20.20;99.90;;;;;;5084053;28;20208;-49
2023/07/19 07:07:37;;;;;;;8.35;5.03;;;20.30;99.90;;;;;;5071692;28;20235;-49
2023/07/19 07:10:05;;;;;;;7.70;5.07;;;20.30;99.90;;;;;;5071706;28;20194;-49
2023/07/19 07:12:31;;;;;;;9.45;5.32;;;20.30;99.90;;;;;;5081756;28;20723;-49
2023/07/19 07:14:56;;;;;;;9.98;5.50;;;20.40;99.90;;;;;;5071840;28;20166;-49
2023/07/19 07:17:22;;;;;;;10.25;5.63;;;20.40;99.90;;;;;;5071315;28;20224;-49
2023/07/19 07:19:48;;;;;;;10.90;4.85;;;20.60;99.90;;;;;;5084794;28;20262;-50
2023/07/19 07:22:13;;;;;;;9.77;4.95;;;20.60;99.90;;;;;;5071255;28;20158;-49
2023/07/19 07:24:40;;;;;;;11.82;5.43;;;20.70;99.90;;;;;;5071353;28;20261;-49
2023/07/19 07:27:05;;;;;;;10.20;5.45;;;20.60;99.90;;;;;;5072146;28;20181;-49
2023/07/19 07:29:31;;;;;;;12.30;5.40;;;20.50;99.90;;;;;;5091151;28;20173;-49
2023/07/19 07:31:57;;;;;;;11.50;5.13;;;20.80;99.90;;;;;;5091441;28;20205;-49
2023/07/19 07:34:23;;;;;;;11.40;5.13;;;21.40;99.90;;;;;;5096213;28;20165;-49
2023/07/19 07:36:49;;;;;;;10.90;5.25;;;21.70;99.90;;;;;;5095476;28;20177;-49
2023/07/19 07:39:15;;;;;;;9.43;4.55;;;21.50;99.90;;;;;;5076206;28;20176;-50
2023/07/19 07:41:40;;;;;;;7.53;4.65;;;21.50;99.90;;;;;;5095511;28;20173;-49
2023/07/19 07:44:06;;;;;;;11.20;4.47;;;21.50;99.90;;;;;;5095471;28;20166;-49
2023/07/19 07:46:32;;;;;;;8.13;4.10;;;21.60;99.90;;;;;;5095622;28;20192;-50
2023/07/19 07:48:59;;;;;;;10.27;4.05;;;21.60;99.90;;;;;;5078986;28;20242;-49
2023/07/19 07:51:27;;;;;;;8.02;3.92;;;21.80;99.90;;;;;;5075518;28;20244;-49
2023/07/19 07:53:53;;;;;;;14.68;4.05;;;21.90;99.90;;;;;;5074930;28;20167;-49
2023/07/19 07:56:18;;;;;;;9.45;3.88;;;21.80;99.90;;;;;;5074837;28;20170;-49
2023/07/19 07:58:44;;;;;;;7.45;3.90;;;21.90;99.90;;;;;;5088911;28;20176;-49
2023/07/19 08:01:09;;;;;;;7.75;3.15;;;21.90;99.90;;;;;;5095094;28;20180;-49
2023/07/19 08:03:35;;;;;;;7.15;3.35;;;22.00;99.90;;;;;;5094965;28;20172;-49
2023/07/19 08:06:04;;;;;;;11.68;4.10;;;22.20;99.90;;;;;;5094960;28;20173;-49
2023/07/19 08:08:29;;;;;;;9.27;3.95;;;22.30;99.90;;;;;;5082809;28;20170;-49
2023/07/19 08:10:55;;;;;;;8.45;3.00;;;22.30;99.90;;;;;;5074644;28;20245;-49
2023/07/19 08:13:21;;;;;;;7.03;3.42;;;22.30;99.90;;;;;;5074791;28;20300;-50
2023/07/19 08:15:47;;;;;;;8.63;2.88;;;22.20;99.90;;;;;;5086768;28;20229;-50
2023/07/19 08:18:13;;;;;;;7.90;3.33;;;22.10;99.90;;;;;;5074395;28;20217;-50
2023/07/19 08:20:39;;;;;;;7.40;3.15;;;21.90;99.90;;;;;;5074230;28;20595;-50
2023/07/19 08:23:05;;;;;;;9.45;3.40;;;21.60;99.90;;;;;;5074561;28;20228;-50
2023/07/19 08:25:30;;;;;;;13.70;4.07;;;21.60;99.90;;;;;;5074244;28;20194;-50
2023/07/19 08:27:56;;;;;;;7.28;3.47;;;21.40;99.90;;;;;;5074642;28;20178;-49
2023/07/19 08:30:23;;;;;;;12.15;3.97;;;21.40;99.90;;;;;;5056156;28;20177;-49
2023/07/19 08:32:48;;;;;;;10.95;3.67;;;21.20;99.90;;;;;;5080282;28;20209;-50
2023/07/19 08:35:15;;;;;;;8.20;3.10;;;21.30;99.90;;;;;;5074102;28;20166;-50
2023/07/19 08:37:43;;;;;;;6.57;3.83;;;21.30;99.90;;;;;;5074153;28;20166;-49
2023/07/19 08:40:19;;;;;;;6.30;3.65;;;21.50;99.90;;;;;;5074155;28;20165;-49
2023/07/19 08:42:44;;;;;;;8.68;3.97;;;21.60;99.90;;;;;;5087164;28;20184;-49
2023/07/19 08:45:11;;;;;;;9.63;4.85;;;21.70;99.90;;;;;;5093477;28;20248;-49
2023/07/19 08:47:38;;;;;;;10.32;4.05;;;21.70;99.90;;;;;;5094332;28;20598;-49
2023/07/19 08:50:05;;;;;;;12.65;4.18;;;21.80;99.90;;;;;;5090056;28;20177;-49
2023/07/19 08:52:32;;;;;;;5.78;3.10;;;22.00;99.90;;;;;;5055930;28;20212;-49
2023/07/19 08:54:59;;;;;;;8.43;3.25;;;22.10;99.90;;;;;;5073755;28;20532;-49
2023/07/19 08:57:25;;;;;;;15.55;4.10;;;22.20;99.90;;;;;;5074028;28;20191;-49
2023/07/19 08:59:50;;;;;;;9.73;3.60;;;22.40;99.90;;;;;;5075235;28;20166;-49
2023/07/19 09:02:16;;;;;;;11.10;3.55;;;22.50;99.90;;;;;;5094158;28;20197;-49
2023/07/19 09:05:05;;;;;;;8.48;3.53;;;22.60;99.90;;;;;;5094177;28;20177;-49
2023/07/19 09:07:32;;;;;;;9.50;3.78;;;22.40;99.90;;;;;;5093846;28;20162;-49
2023/07/19 09:09:58;;;;;;;12.57;4.05;;;22.40;99.90;;;;;;5091186;28;20204;-49
2023/07/19 09:12:25;;;;;;;8.55;3.90;;;22.30;99.90;;;;;;5073704;28;20733;-49
2023/07/19 09:14:50;;;;;;;14.13;3.67;;;22.40;99.90;;;;;;5073436;28;20162;-49
2023/07/19 09:17:16;;;;;;;10.20;4.13;;;22.40;99.90;;;;;;5073304;28;20167;-49
2023/07/19 09:19:42;;;;;;;9.85;3.40;;;22.60;99.90;;;;;;5073321;28;20527;-49
2023/07/19 09:22:09;;;;;;;11.10;3.60;;;22.50;99.90;;;;;;5073290;28;20221;-49
2023/07/19 09:24:35;;;;;;;8.48;2.95;;;22.50;99.90;;;;;;5073530;28;20239;-49
2023/07/19 09:27:00;;;;;;;8.07;3.63;;;22.40;99.90;;;;;;5073214;28;20637;-49
2023/07/19 09:29:30;;;;;;;9.50;2.83;;;22.30;99.90;;;;;;5066591;28;20181;-49
2023/07/19 09:32:00;;;;;;;7.03;3.55;;;22.50;99.90;;;;;;5093529;28;20714;-49
2023/07/19 09:34:36;;;;;;;8.25;3.40;;;22.70;99.90;;;;;;5093913;28;20589;-49
2023/07/19 09:37:02;;;;;;;8.45;3.40;;;22.60;99.90;;;;;;5093311;28;20577;-49
2023/07/19 09:39:34;;;;;;;7.10;3.70;;;22.50;99.90;;;;;;5081949;28;20174;-49
2023/07/19 09:42:01;;;;;;;8.10;3.72;;;22.50;99.90;;;;;;5073176;28;20173;-49
2023/07/19 09:44:27;;;;;;;8.40;3.55;;;22.70;99.90;;;;;;5073033;28;20664;-50
2023/07/19 09:46:56;;;;;;;11.38;3.90;;;23.10;99.90;;;;;;5075955;28;20268;-49
2023/07/19 09:49:25;;;;;;;10.25;3.72;;;22.70;99.90;;;;;;5093215;28;20200;-49
2023/07/19 09:51:55;;;;;;;15.95;4.53;;;23.70;99.90;;;;;;5092791;28;20240;-49
2023/07/19 09:54:21;;;;;;;8.85;4.13;;;23.90;99.90;;;;;;5092945;28;20215;-49
2023/07/19 09:56:47;;;;;;;11.13;4.03;;;24.20;99.90;;;;;;5090706;28;20184;-49
2023/07/19 09:59:41;;;;;;;7.57;3.55;;;23.90;99.90;;;;;;5072773;28;20166;-49
2023/07/19 10:02:07;;;;;;;9.25;4.05;;;24.00;99.90;;;;;;5069366;28;20196;-49
2023/07/19 10:04:38;;;;;;;10.40;4.47;;;24.00;99.90;;;;;;5072440;28;20173;-49
2023/07/19 10:07:04;;;;;;;13.38;4.90;;;23.70;99.90;;;;;;5072589;28;20170;-49
2023/07/19 10:09:31;;;;;;;8.23;4.22;;;23.70;99.90;;;;;;5072367;28;20249;-49
2023/07/19 10:12:01;;;;;;;12.93;4.35;;;23.70;99.90;;;;;;5072059;28;20229;-49
2023/07/19 10:14:28;;;;;;;12.77;4.18;;;23.80;99.90;;;;;;5072127;28;20637;-49
2023/07/19 10:16:58;;;;;;;9.40;4.68;;;24.10;99.90;;;;;;5074948;28;20213;-49
2023/07/19 10:19:24;;;;;;;6.75;4.45;;;24.20;99.90;;;;;;5092695;28;20572;-49
2023/07/19 10:22:07;;;;;;;9.23;4.68;;;24.40;99.90;;;;;;5092442;28;20165;-49
2023/07/19 10:24:35;;;;;;;13.30;5.47;;;24.50;99.90;;;;;;5092347;28;20168;-49
2023/07/19 10:27:08;;;;;;;8.48;4.65;;;24.10;99.90;;;;;;5086622;28;20178;-49
2023/07/19 10:29:44;;;;;;;7.82;5.03;;;24.30;99.90;;;;;;5071953;28;20244;-49
2023/07/19 10:32:10;;;;;;;10.68;4.55;;;24.40;99.90;;;;;;5071913;28;20205;-49
2023/07/19 10:34:36;;;;;;;9.27;4.50;;;24.80;99.90;;;;;;5071899;28;20200;-49
2023/07/19 10:37:03;;;;;;;9.93;3.92;;;25.00;99.90;;;;;;5091167;28;20168;-49
2023/07/19 10:39:30;;;;;;;5.88;3.38;;;25.30;99.90;;;;;;5092055;28;20160;-49
2023/07/19 10:41:56;;;;;;;7.60;3.42;;;25.40;99.90;;;;;;5092625;28;20210;-49
2023/07/19 10:44:22;;;;;;;4.60;2.85;;;25.50;99.90;;;;;;5091919;28;20168;-48
2023/07/19 10:46:48;;;;;;;8.88;3.20;;;25.60;99.90;;;;;;5074754;28;20271;-49
2023/07/19 10:49:14;;;;;;;5.25;3.08;;;25.80;99.90;;;;;;5071564;28;20621;-49
2023/07/19 10:51:54;;;;;;;5.65;2.80;;;25.90;99.90;;;;;;5071585;28;20664;-49
2023/07/19 10:54:21;;;;;;;5.57;3.22;;;26.10;99.90;;;;;;5072136;28;20306;-49
2023/07/19 10:56:50;;;;;;;7.25;3.17;;;25.90;99.90;;;;;;5087871;28;20813;-49
2023/07/19 10:59:16;;;;;;;35.47;5.80;;;25.50;99.90;;;;;;5091746;28;20239;-49
2023/07/19 11:01:43;;;;;;;9.07;3.67;;;25.60;99.90;;;;;;5073652;28;20169;-49
2023/07/19 11:04:08;;;;;;;14.32;3.80;;;25.40;99.90;;;;;;5091694;28;20539;-49
2023/07/19 11:06:36;;;;;;;57.53;7.22;;;25.60;99.90;;;;;;5076836;28;20256;-49
2023/07/19 11:09:09;;;;;;;11.82;4.15;;;25.80;99.90;;;;;;5053464;28;20268;-49
2023/07/19 11:11:39;;;;;;;6.38;3.38;;;25.60;99.90;;;;;;5071240;28;20568;-49
2023/07/19 11:14:04;;;;;;;6.93;2.92;;;25.20;99.90;;;;;;5071776;28;20178;-49
2023/07/19 11:16:31;;;;;;;7.97;3.22;;;25.00;99.90;;;;;;5085064;28;20172;-49
2023/07/19 11:18:57;;;;;;;4.93;2.85;;;22.80;99.90;;;;;;5091326;28;20168;-49
2023/07/19 11:21:27;;;;;;;62.85;9.65;;;25.60;99.90;;;;;;5092062;28;20183;-49
2023/07/19 11:23:53;;;;;;;32.08;5.38;;;25.40;99.90;;;;;;5091924;28;20161;-49
2023/07/19 11:26:19;;;;;;;22.05;4.68;;;25.30;99.90;;;;;;5076601;28;20234;-50
2023/07/19 11:28:49;;;;;;;7.40;2.78;;;25.30;99.90;;;;;;5071542;28;20522;-49
2023/07/19 11:31:33;;;;;;;5.93;2.65;;;25.70;99.90;;;;;;5071136;28;20209;-49
2023/07/19 11:34:00;;;;;;;26.63;5.70;;;26.00;99.90;;;;;;5079534;28;20165;-49
2023/07/19 11:36:26;;;;;;;6.63;2.65;;;25.60;99.90;;;;;;5091769;28;20171;-49
2023/07/19 11:38:52;;;;;;;7.63;2.67;;;25.60;99.90;;;;;;5091715;28;20169;-49
2023/07/19 11:41:17;;;;;;;4.43;2.33;;;25.60;99.90;;;;;;5091347;28;20176;-49
2023/07/19 11:43:45;;;;;;;6.45;2.67;;;25.30;99.90;;;;;;5067355;28;20202;-50
2023/07/19 11:46:13;;;;;;;5.80;2.05;;;25.40;99.90;;;;;;5071059;28;20177;-50
2023/07/19 11:48:39;;;;;;;4.38;2.50;;;25.20;99.90;;;;;;5071166;28;20187;-50
2023/07/19 11:51:05;;;;;;;6.88;2.42;;;25.20;99.90;;;;;;5071101;28;20242;-49
2023/07/19 11:53:31;;;;;;;53.83;7.45;;;25.10;99.90;;;;;;5075132;28;20569;-49
2023/07/19 11:55:56;;;;;;;7.15;2.60;;;25.30;99.90;;;;;;5091298;28;20161;-50
2023/07/19 11:58:23;;;;;;;10.90;3.00;;;25.00;99.90;;;;;;5091667;28;20181;-49
2023/07/19 12:00:48;;;;;;;5.13;2.53;;;25.20;99.90;;;;;;5091415;28;20169;-50
2023/07/19 12:03:14;;;;;;;3.78;2.60;;;25.50;99.90;;;;;;5071536;28;20173;-50
2023/07/19 12:05:40;;;;;;;6.72;2.17;;;25.90;99.90;;;;;;5071306;28;20181;-50
2023/07/19 12:08:06;;;;;;;4.45;2.25;;;26.10;99.90;;;;;;5071077;28;20172;-51
2023/07/19 12:10:32;;;;;;;5.35;2.50;;;26.20;99.90;;;;;;5070774;28;20162;-50
2023/07/19 12:12:57;;;;;;;5.30;2.33;;;26.40;99.90;;;;;;5083226;28;20291;-49
2023/07/19 12:15:23;;;;;;;4.85;2.78;;;26.40;99.90;;;;;;5091573;28;20247;-49
2023/07/19 12:17:49;;;;;;;6.85;2.80;;;26.10;99.90;;;;;;5090999;28;20169;-49
2023/07/19 12:20:15;;;;;;;4.18;2.30;;;26.00;99.90;;;;;;5075136;28;20582;-49
2023/07/19 12:22:42;;;;;;;9.57;3.00;;;26.00;99.90;;;;;;5084372;28;20551;-49
2023/07/19 12:25:11;;;;;;;6.00;2.45;;;25.70;99.90;;;;;;5074243;28;20174;-49
2023/07/19 12:27:37;;;;;;;8.20;2.40;;;25.80;99.90;;;;;;5074324;28;20169;-49
2023/07/19 12:30:03;;;;;;;6.82;2.50;;;25.50;99.90;;;;;;5074284;28;20161;-49
2023/07/19 12:32:29;;;;;;;9.25;3.03;;;25.40;99.90;;;;;;5082434;28;20286;-50
2023/07/19 12:34:55;;;;;;;6.28;2.40;;;25.30;99.90;;;;;;5095190;28;20199;-49
2023/07/19 12:37:22;;;;;;;4.97;2.13;;;25.30;99.90;;;;;;5095145;28;20176;-49
2023/07/19 12:39:48;;;;;;;3.72;2.15;;;24.90;99.90;;;;;;5094415;28;20153;-49